Observation Tools

Southern magnolia Photo courtesy of Sally and Andy Wasowski, Lady Bird Wildflower Center, www.wildflower.org.

Southern magnolia (Magnolia grandiflora)


Also Known As: Laurier tulipier, Evergreen magnolia, Bull-bay
Plant Family: Magnolia (Magnoliaceae)
Project BudBurst Plant Group: Evergreen Trees and Shrubs

Identification Hints: Magnolias have distinctive large, shiny evergreen leaves, and large fragrant flowers with many long narrow petals. The leaves often have an orangish-coloration on the underside. Sweetbay magnolia (Magnolia virginiana) also occurs in southern coastal plains but has thinnerleaves with whitish undersides.

Did you Know? The Southern magnolia is one of the mostbeautiful trees and is therefore highly valued as an ornamental. The Choctaw and Kosati tribes used the bark of this tree as a dermatological aid. The Southernmagnolia is the state tree of both Louisiana and Mississippi.


Live Map for Southern magnolia

Other years available for viewing:

Below you can view all observations that have been reported in for Southern magnolia (If the map below is empty then there have not been any observations reported.)

Use the navigation buttons on the left to zoom in/out and pan around. Click on each place marker to get detail information about that observation.

Leaf/Needles/Stalk = Leaf/Needles/Stalk Flower = Flower Pollen = Pollen Fruiting = Fruiting Color = Color

--Back to Top--

close help window button

The table below displays all the data that has been submitted to Project BudBurst. By default, the data is sorted by the date on which the phenophase occurred. Clicking the up and down arrows next to each column name allows you to sort on any value. If there have been more than 10 observations submitted, you can choose how many to display at a time using the "Show __ entries" control. You can also page through the data using the previous and next buttons at the bottom right of the table.

The Search box allows you to search all of the data. Searching by date, species, phenophase, etc. is easy—just start typing and the table will immediately change to contain only observations that contain your search phrase. Do you want to see only 2012 observations? Just type "2012" in the search box. Only want to see maples? Enter "Acer." You can combine searches, too! Searching for "acer 2012" will narrow your results to only the maples that were observed in 2012 (assuming that any observations exist, of course).

Once you have your results in the order desired, you can use any of the buttons above the search box to copy the results to the clipboard; save them as a text, or spreadsheet; or even print them from your browser!

Observational data for Southern magnolia:

help button
Date Contributor Common Name Species Phenophase Latitude Longitude Obs#
Sat Apr 11 00:00:00 GMT 2009 anonymous Southern magnolia Magnolia grandiflora First Leaf 39.175900000000000 -86.532500000000000 5942
Sun Apr 05 00:00:00 GMT 2009 anonymous Southern magnolia Magnolia grandiflora First Flower 39.175900000000000 -86.532500000000000 5943
Thu Apr 09 00:00:00 GMT 2009 anonymous Southern magnolia Magnolia grandiflora Full Flower 39.175900000000000 -86.532500000000000 5944
Sat Apr 11 00:00:00 GMT 2009 anonymous Southern magnolia Magnolia grandiflora First Ripe Fruit 39.175900000000000 -86.532500000000000 5945
Fri Apr 10 00:00:00 GMT 2009 anonymous Southern magnolia Magnolia grandiflora First Leaf 39.175900000000000 -86.534600000000000 5977
Wed Mar 25 00:00:00 GMT 2009 anonymous Southern magnolia Magnolia grandiflora First Flower 39.175900000000000 -86.534600000000000 5978
Mon Mar 30 00:00:00 GMT 2009 anonymous Southern magnolia Magnolia grandiflora Full Flower 39.175900000000000 -86.534600000000000 5979
Thu Apr 09 00:00:00 GMT 2009 anonymous Southern magnolia Magnolia grandiflora First Leaf 39.175900000000000 -86.534600000000000 6209
Mon Mar 30 00:00:00 GMT 2009 anonymous Southern magnolia Magnolia grandiflora First Flower 39.175900000000000 -86.534600000000000 6210
Fri Apr 03 00:00:00 GMT 2009 anonymous Southern magnolia Magnolia grandiflora Full Flower 39.175900000000000 -86.534600000000000 6211
Wed Apr 15 00:00:00 GMT 2009 anonymous Southern magnolia Magnolia grandiflora End of Flowering 39.175900000000000 -86.534600000000000 6212
Wed Apr 22 00:00:00 GMT 2009 chagen Southern magnolia Magnolia grandiflora First Leaf 40.165600000000000 -75.227200000000000 6481
Tue Apr 07 00:00:00 GMT 2009 chagen Southern magnolia Magnolia grandiflora First Flower 40.165600000000000 -75.227200000000000 6482
Tue Apr 14 00:00:00 GMT 2009 chagen Southern magnolia Magnolia grandiflora Full Flower 40.165600000000000 -75.227200000000000 6483
Sat Apr 04 00:00:00 GMT 2009 anonymous Southern magnolia Magnolia grandiflora First Flower 30.277600000000000 -89.776500000000000 6970
Fri May 01 00:00:00 GMT 2009 anonymous Southern magnolia Magnolia grandiflora Full Flower 30.277600000000000 -89.776500000000000 6971
Tue May 12 00:00:00 GMT 2009 rgillen1 Southern magnolia Magnolia grandiflora Full Flower 30.000000000000000 -90.000000000000000 7343
Sat Apr 25 00:00:00 GMT 2009 wasatchrider Southern magnolia Magnolia grandiflora First Leaf 41.902300000000000 -72.934800000000000 7325
Wed Apr 29 00:00:00 GMT 2009 wasatchrider Southern magnolia Magnolia grandiflora First Flower 41.902300000000000 -72.934800000000000 7326
Wed Apr 29 00:00:00 GMT 2009 wasatchrider Southern magnolia Magnolia grandiflora Full Flower 41.902300000000000 -72.934800000000000 7327
Thu Sep 24 00:00:00 GMT 2009 anonymous Southern magnolia Magnolia grandiflora First Ripe Fruit 30.599300000000000 -87.014900000000000 8618
Sun Dec 20 00:00:00 GMT 2009 sbaker Southern magnolia Magnolia grandiflora First Ripe Fruit 37.754800000000000 -122.434000000000000 9004
Sun Dec 20 00:00:00 GMT 2009 sbaker Southern magnolia Magnolia grandiflora End of Flowering 37.752300000000000 -122.434000000000000 9007
Sun Dec 20 00:00:00 GMT 2009 sbaker Southern magnolia Magnolia grandiflora End of Flowering 37.754800000000000 -122.434000000000000 9005
Sun Dec 20 00:00:00 GMT 2009 sbaker Southern magnolia Magnolia grandiflora End of Flowering 37.752700000000000 -122.433000000000000 9006
Mon Mar 22 00:00:00 GMT 2010 anonymous Southern magnolia Magnolia grandiflora First Leaf 35.788900000000000 -83.963500000000000 9242
Mon Mar 22 00:00:00 GMT 2010 srund Southern magnolia Magnolia grandiflora First Flower 42.369000000000000 -71.073900000000000 9239
Tue Mar 09 00:00:00 GMT 2010 anonymous Southern magnolia Magnolia grandiflora First Leaf 39.176100000000000 -86.513200000000000 9634
Thu Mar 25 00:00:00 GMT 2010 anonymous Southern magnolia Magnolia grandiflora First Flower 39.176100000000000 -86.513200000000000 9635
Mon Apr 05 00:00:00 GMT 2010 anonymous Southern magnolia Magnolia grandiflora Full Flower 39.176100000000000 -86.513200000000000 9636
Wed Apr 14 00:00:00 GMT 2010 anonymous Southern magnolia Magnolia grandiflora End of Flowering 39.176100000000000 -86.513200000000000 9637
Thu Mar 25 00:00:00 GMT 2010 anonymous Southern magnolia Magnolia grandiflora First Ripe Fruit 39.176100000000000 -86.513200000000000 9638
Tue Mar 09 00:00:00 GMT 2010 anonymous Southern magnolia Magnolia grandiflora First Leaf 39.176100000000000 -86.513200000000000 9639
Thu Mar 25 00:00:00 GMT 2010 anonymous Southern magnolia Magnolia grandiflora First Flower 39.176100000000000 -86.513200000000000 9640
Mon Apr 05 00:00:00 GMT 2010 anonymous Southern magnolia Magnolia grandiflora Full Flower 39.176100000000000 -86.513200000000000 9641
Wed Apr 14 00:00:00 GMT 2010 anonymous Southern magnolia Magnolia grandiflora End of Flowering 39.176100000000000 -86.513200000000000 9642
Mon Apr 05 00:00:00 GMT 2010 anonymous Southern magnolia Magnolia grandiflora First Ripe Fruit 39.176100000000000 -86.513200000000000 9643
Wed Mar 10 00:00:00 GMT 2010 anonymous Southern magnolia Magnolia grandiflora First Leaf 39.176100000000000 -86.513200000000000 9774
Mon Mar 22 00:00:00 GMT 2010 anonymous Southern magnolia Magnolia grandiflora First Flower 39.176100000000000 -86.513200000000000 9775
Wed Apr 07 00:00:00 GMT 2010 anonymous Southern magnolia Magnolia grandiflora Full Flower 39.176100000000000 -86.513200000000000 9776
Wed Mar 10 00:00:00 GMT 2010 anonymous Southern magnolia Magnolia grandiflora First Leaf 36.924800000000000 -80.020900000000000 10525
Tue Apr 17 00:00:00 GMT 2012 lduncan Southern magnolia Magnolia grandiflora Flowers (Middle) 34.674700000000000 -82.822200000000000 15193
Tue May 01 00:00:00 GMT 2012 cswhite Southern magnolia Magnolia grandiflora First Flower 34.728800000000000 -76.822100000000000 15435
Sat May 12 00:00:00 GMT 2012 cswhite Southern magnolia Magnolia grandiflora Full Flower 34.728800000000000 -76.822100000000000 15596
Sat May 19 00:00:00 GMT 2012 tuckerasso Southern magnolia Magnolia grandiflora First Flower 37.231600000000000 -76.663600000000000 16562
Thu May 31 00:00:00 GMT 2012 tuckerasso Southern magnolia Magnolia grandiflora Full Flower 37.231600000000000 -76.663600000000000 16563
Sat Sep 22 00:00:00 GMT 2012 alkatoma Southern magnolia Magnolia grandiflora Fruit (Middle) 36.883300000000000 -76.280800000000000 16743
Thu Oct 04 00:00:00 GMT 2012 cswhite Southern magnolia Magnolia grandiflora First Ripe Fruit 34.728800000000000 -76.822100000000000 16928
Fri Oct 12 00:00:00 GMT 2012 dlind Southern magnolia Magnolia grandiflora First Ripe Fruit 40.667600000000000 -73.963200000000000 17010
Wed Oct 24 00:00:00 GMT 2012 Candycebbg Southern magnolia Magnolia grandiflora Fruit (Middle) 40.667600000000000 -73.963200000000000 17187
Sun Nov 11 00:00:00 GMT 2012 cswhite Southern magnolia Magnolia grandiflora Full Fruiting 34.728800000000000 -76.822100000000000 17533
Thu Oct 18 00:00:00 GMT 2012 tuckerasso Southern magnolia Magnolia grandiflora First Ripe Fruit 37.231600000000000 -76.663600000000000 17656
Sat Dec 01 00:00:00 GMT 2012 tuckerasso Southern magnolia Magnolia grandiflora Full Fruiting 37.231600000000000 -76.663600000000000 17657
Fri Oct 12 00:00:00 GMT 2012 dlind Southern magnolia Magnolia grandiflora First Ripe Fruit 40.667600000000000 -73.963200000000000 17659
Tue Oct 23 00:00:00 GMT 2012 dlind Southern magnolia Magnolia grandiflora Full Fruiting 40.667600000000000 -73.963200000000000 17660
Wed May 15 00:00:00 GMT 2013 refollet Southern magnolia Magnolia grandiflora First Flower 28.104700000000000 -80.675300000000000 20587
Mon Jun 17 00:00:00 GMT 2013 dlind Southern magnolia Magnolia grandiflora First Flower 40.667600000000000 -73.963200000000000 21183
Tue Sep 10 00:00:00 GMT 2013 usbg Southern magnolia Magnolia grandiflora Fruit (Early) 38.888100000000000 -77.012900000000000 22004
Tue Sep 10 00:00:00 GMT 2013 usbg Southern magnolia Magnolia grandiflora Fruit (Early) 38.888100000000000 -77.012900000000000 21993
Sat Sep 14 00:00:00 GMT 2013 Clebeau Southern magnolia Magnolia grandiflora Fruit (Middle) 38.888000000000000 -77.014200000000000 22059
Sat Sep 14 00:00:00 GMT 2013 jocelynbethany Southern magnolia Magnolia grandiflora Fruit (Middle) 38.888000000000000 -77.014200000000000 22078
Thu Sep 19 00:00:00 GMT 2013 danabuchbinder Southern magnolia Magnolia grandiflora Fruit (Early) 35.902300000000000 -78.888300000000000 22507
Sat Oct 19 00:00:00 GMT 2013 usbg Southern magnolia Magnolia grandiflora Fruit (Late) 38.888100000000000 -77.012900000000000 22660
Sat Oct 19 00:00:00 GMT 2013 usbg Southern magnolia Magnolia grandiflora Fruit (Late) 38.888100000000000 -77.012900000000000 22648
Sat Oct 19 00:00:00 GMT 2013 usbg Southern magnolia Magnolia grandiflora Fruit (Late) 38.888100000000000 -77.012900000000000 22624
Sat Oct 19 00:00:00 GMT 2013 usbg Southern magnolia Magnolia grandiflora Fruit (Late) 38.888100000000000 -77.012900000000000 22636
Sat Nov 02 00:00:00 GMT 2013 usbg Southern magnolia Magnolia grandiflora Fruit (Late) 38.888000000000000 -77.012900000000000 23007
Sat Oct 19 00:00:00 GMT 2013 dlind Southern magnolia Magnolia grandiflora First Ripe Fruit 40.667600000000000 -73.963200000000000 23016
Thu Nov 07 00:00:00 GMT 2013 ncmns Southern magnolia Magnolia grandiflora Fruit (Middle) 35.780200000000000 -78.639100000000000 23048
Thu Sep 19 00:00:00 GMT 2013 robinv1_Washington_College_reporter14 Southern magnolia Magnolia grandiflora Full Flower 39.219200000000000 -76.069600000000000 24036
Wed Sep 25 00:00:00 GMT 2013 robinv1_Washington_College_reporter14 Southern magnolia Magnolia grandiflora First Ripe Fruit 39.219200000000000 -76.069600000000000 24037
Wed Oct 30 00:00:00 GMT 2013 robinv1_Washington_College_reporter14 Southern magnolia Magnolia grandiflora Full Fruiting 39.219200000000000 -76.069600000000000 24038
Wed May 15 00:00:00 GMT 2013 tuckerasso Southern magnolia Magnolia grandiflora First Flower 37.231600000000000 -76.663600000000000 24605
Wed May 29 00:00:00 GMT 2013 tuckerasso Southern magnolia Magnolia grandiflora Full Flower 37.231600000000000 -76.663600000000000 24606
Mon Nov 25 00:00:00 GMT 2013 tuckerasso Southern magnolia Magnolia grandiflora Full Fruiting 37.231600000000000 -76.663600000000000 24607
Thu May 07 00:00:00 GMT 2015 tuckerasso Southern magnolia Magnolia grandiflora First Flower 37.231600000000000 -76.663600000000000 61688
Thu May 21 00:00:00 GMT 2015 tuckerasso Southern magnolia Magnolia grandiflora Full Flower 37.231600000000000 -76.663600000000000 61689
Tue Nov 17 00:00:00 GMT 2015 tuckerasso Southern magnolia Magnolia grandiflora Full Fruiting 37.231600000000000 -76.663600000000000 61690
Mon Feb 08 00:00:00 GMT 2016 e2720914 Southern magnolia Magnolia grandiflora Flowers (None) 31.623940000000000 -94.648990000000000 61862
Mon Feb 08 00:00:00 GMT 2016 e2720914 Southern magnolia Magnolia grandiflora Fruit (None) 31.623940000000000 -94.648990000000000 61863
Wed Feb 10 00:00:00 GMT 2016 smazloom Southern magnolia Magnolia grandiflora Flowers (Early) 33.215100000000000 -96.707910000000000 61887
Wed Feb 10 00:00:00 GMT 2016 smazloom Southern magnolia Magnolia grandiflora Fruit (Early) 33.215100000000000 -96.707910000000000 61888
Wed Feb 10 00:00:00 GMT 2016 smazloom Southern magnolia Magnolia grandiflora Flowers (None) 33.215100000000000 -96.707910000000000 61889
Wed Feb 10 00:00:00 GMT 2016 smazloom Southern magnolia Magnolia grandiflora Fruit (None) 33.215100000000000 -96.707910000000000 61890
Wed Feb 10 00:00:00 GMT 2016 smazloom Southern magnolia Magnolia grandiflora Flowers (None) 33.215100000000000 -96.707910000000000 61891
Wed Feb 10 00:00:00 GMT 2016 smazloom Southern magnolia Magnolia grandiflora Fruit (None) 33.215100000000000 -96.707910000000000 61892
Wed Feb 10 00:00:00 GMT 2016 smazloom Southern magnolia Magnolia grandiflora Flowers (None) 40.000000000000000 -100.000000000000000 61893
Wed Feb 10 00:00:00 GMT 2016 smazloom Southern magnolia Magnolia grandiflora Fruit (None) 40.000000000000000 -100.000000000000000 61894
Tue Feb 09 00:00:00 GMT 2016 ggonzalez Southern magnolia Magnolia grandiflora Flowers (Late) 32.651800000000000 -96.908340000000000 61908
Tue Feb 09 00:00:00 GMT 2016 ggonzalez Southern magnolia Magnolia grandiflora Fruit (None) 32.651800000000000 -96.908340000000000 61909
Tue Feb 09 00:00:00 GMT 2016 ggonzalez Southern magnolia Magnolia grandiflora Flowers (Late) 32.645620000000000 -96.940070000000000 61910
Tue Feb 09 00:00:00 GMT 2016 ggonzalez Southern magnolia Magnolia grandiflora Fruit (None) 32.645620000000000 -96.940070000000000 61911
Sat Feb 13 00:00:00 GMT 2016 Laxnerjeremy Southern magnolia Magnolia grandiflora Flowers (None) 32.782661000000000 -79.937541000000000 61926
Sat Feb 13 00:00:00 GMT 2016 Laxnerjeremy Southern magnolia Magnolia grandiflora Fruit (None) 32.782661000000000 -79.937541000000000 61927
Tue Mar 08 00:00:00 GMT 2016 wxdude225 Southern magnolia Magnolia grandiflora Flowers (None) 34.984862000000000 -81.973929000000000 62327
Tue Mar 08 00:00:00 GMT 2016 wxdude225 Southern magnolia Magnolia grandiflora Fruit (None) 34.984862000000000 -81.973929000000000 62328
Mon Mar 21 00:00:00 GMT 2016 MNC Southern magnolia Magnolia grandiflora First Flower 29.663511000000000 -82.279272000000000 62842
Thu Apr 14 00:00:00 GMT 2016 jstrong3 Southern magnolia Magnolia grandiflora Flowers (None) 38.835270000000000 -77.309480000000000 64606
Thu Apr 14 00:00:00 GMT 2016 jstrong3 Southern magnolia Magnolia grandiflora Fruit (Late) 38.835270000000000 -77.309480000000000 64607
Mon May 30 00:00:00 GMT 2016 bthomps1 Southern magnolia Magnolia grandiflora First Flower 38.195980000000000 -85.534280000000000 68438
Mon Jun 06 00:00:00 GMT 2016 bthomps1 Southern magnolia Magnolia grandiflora Full Flower 38.195980000000000 -85.534280000000000 68439
Mon Jun 20 00:00:00 GMT 2016 jalex23 Southern magnolia Magnolia grandiflora Flowers (Early) 32.869760000000000 -96.953940000000000 68465
Mon Jun 20 00:00:00 GMT 2016 jalex23 Southern magnolia Magnolia grandiflora Fruit (Early) 32.869760000000000 -96.953940000000000 68466
Tue Jun 21 00:00:00 GMT 2016 TBrooks11 Southern magnolia Magnolia grandiflora Flowers (None) 33.184255000000000 -96.890895000000000 68470
Tue Jun 21 00:00:00 GMT 2016 TBrooks11 Southern magnolia Magnolia grandiflora Fruit (None) 33.184255000000000 -96.890895000000000 68471
Tue Jul 12 00:00:00 GMT 2016 MBGYouthandFamily Southern magnolia Magnolia grandiflora Flowers (None) 38.612165200000000 -90.260459900000000 68836
Tue Jul 12 00:00:00 GMT 2016 MBGYouthandFamily Southern magnolia Magnolia grandiflora Fruit (None) 38.612165200000000 -90.260459900000000 68837
Tue Aug 09 00:00:00 GMT 2016 MBGYouthandFamily Southern magnolia Magnolia grandiflora Flowers (None) 38.612165200000000 -90.260459900000000 69380
Tue Aug 09 00:00:00 GMT 2016 MBGYouthandFamily Southern magnolia Magnolia grandiflora Fruit (None) 38.612165200000000 -90.260459900000000 69381
Wed Aug 17 00:00:00 GMT 2016 MBGYouthandFamily Southern magnolia Magnolia grandiflora Flowers (None) 38.612165200000000 -90.260459900000000 69463
Wed Aug 17 00:00:00 GMT 2016 MBGYouthandFamily Southern magnolia Magnolia grandiflora Fruit (None) 38.612165200000000 -90.260459900000000 69464
Mon Aug 29 00:00:00 GMT 2016 MBGYouthandFamily Southern magnolia Magnolia grandiflora Flowers (None) 38.612165200000000 -90.260459900000000 69595
Mon Aug 29 00:00:00 GMT 2016 MBGYouthandFamily Southern magnolia Magnolia grandiflora Fruit (None) 38.612165200000000 -90.260459900000000 69596
Sat Sep 10 00:00:00 GMT 2016 iaintod Southern magnolia Magnolia grandiflora Full Fruiting 32.803653000000000 -96.806492000000000 69976
Mon Sep 26 00:00:00 GMT 2016 MBGYouthandFamily Southern magnolia Magnolia grandiflora Flowers (None) 38.612165200000000 -90.260459900000000 70215
Mon Sep 26 00:00:00 GMT 2016 MBGYouthandFamily Southern magnolia Magnolia grandiflora Fruit (Middle) 38.612165200000000 -90.260459900000000 70216
Fri Sep 30 00:00:00 GMT 2016 Lallen4 Southern magnolia Magnolia grandiflora Flowers (None) 38.645590000000000 -90.505460000000000 70559
Fri Sep 30 00:00:00 GMT 2016 Lallen4 Southern magnolia Magnolia grandiflora Fruit (None) 38.645590000000000 -90.505460000000000 70560
Fri Sep 30 00:00:00 GMT 2016 Lallen4 Southern magnolia Magnolia grandiflora Flowers (None) 38.645590000000000 -90.505460000000000 70588
Fri Sep 30 00:00:00 GMT 2016 Lallen4 Southern magnolia Magnolia grandiflora Fruit (None) 38.645590000000000 -90.505460000000000 70589
Fri Sep 30 00:00:00 GMT 2016 Lallen Southern magnolia Magnolia grandiflora Flowers (None) 38.645590000000000 -90.505460000000000 70590
Fri Sep 30 00:00:00 GMT 2016 Lallen Southern magnolia Magnolia grandiflora Fruit (None) 38.645590000000000 -90.505460000000000 70591
Sat Oct 08 00:00:00 GMT 2016 Lallen Southern magnolia Magnolia grandiflora Flowers (None) 38.645590000000000 -90.505460000000000 70592
Sat Oct 08 00:00:00 GMT 2016 Lallen Southern magnolia Magnolia grandiflora Fruit (Early) 38.645590000000000 -90.505460000000000 70593
Fri Sep 30 00:00:00 GMT 2016 Lallen1 Southern magnolia Magnolia grandiflora Flowers (None) 38.645590000000000 -90.505460000000000 70594
Fri Sep 30 00:00:00 GMT 2016 Lallen1 Southern magnolia Magnolia grandiflora Fruit (None) 38.645590000000000 -90.505460000000000 70595
Fri Oct 07 00:00:00 GMT 2016 Lallen1 Southern magnolia Magnolia grandiflora Flowers (None) 38.645590000000000 -90.505460000000000 70596
Fri Oct 07 00:00:00 GMT 2016 Lallen1 Southern magnolia Magnolia grandiflora Fruit (Early) 38.645590000000000 -90.505460000000000 70597
Sun May 01 00:00:00 GMT 2016 wxdude225 Southern magnolia Magnolia grandiflora First Flower 34.852620000000000 -82.394010000000000 70758
Wed Jun 01 00:00:00 GMT 2016 wxdude225 Southern magnolia Magnolia grandiflora Full Flower 34.852620000000000 -82.394010000000000 70759
Thu Sep 01 00:00:00 GMT 2016 wxdude225 Southern magnolia Magnolia grandiflora Full Fruiting 34.852620000000000 -82.394010000000000 70760
Mon Oct 10 00:00:00 GMT 2016 bthomps1 Southern magnolia Magnolia grandiflora Full Fruiting 38.195980000000000 -85.534280000000000 70810
Mon Oct 17 00:00:00 GMT 2016 MBGYouthandFamily Southern magnolia Magnolia grandiflora Flowers (None) 38.612165200000000 -90.260459900000000 71029
Mon Oct 17 00:00:00 GMT 2016 MBGYouthandFamily Southern magnolia Magnolia grandiflora Fruit (Late) 38.612165200000000 -90.260459900000000 71030
Mon Nov 21 00:00:00 GMT 2016 MBGYouthandFamily Southern magnolia Magnolia grandiflora Flowers (None) 38.612165200000000 -90.260459900000000 73911
Mon Nov 21 00:00:00 GMT 2016 MBGYouthandFamily Southern magnolia Magnolia grandiflora Fruit (Late) 38.612165200000000 -90.260459900000000 73912
Mon Dec 12 00:00:00 GMT 2016 MBGYouthandFamily Southern magnolia Magnolia grandiflora Flowers (None) 38.612165200000000 -90.260459900000000 74302
Mon Dec 12 00:00:00 GMT 2016 MBGYouthandFamily Southern magnolia Magnolia grandiflora Fruit (Late) 38.612165200000000 -90.260459900000000 74303
Tue Feb 07 00:00:00 GMT 2017 MBGYouthandFamily Southern magnolia Magnolia grandiflora Flowers (None) 38.612165200000000 -90.260459900000000 74809
Tue Feb 07 00:00:00 GMT 2017 MBGYouthandFamily Southern magnolia Magnolia grandiflora Fruit (None) 38.612165200000000 -90.260459900000000 74810
Tue Feb 14 00:00:00 GMT 2017 ASPaintlia Southern magnolia Magnolia grandiflora Flowers (None) 32.786900000000000 -79.929100000000000 74923
Tue Feb 14 00:00:00 GMT 2017 ASPaintlia Southern magnolia Magnolia grandiflora Fruit (None) 32.786900000000000 -79.929100000000000 74924
Wed Feb 22 00:00:00 GMT 2017 Nicole Southern magnolia Magnolia grandiflora Flowers (None) 32.786900000000000 -79.929100000000000 75117
Wed Feb 22 00:00:00 GMT 2017 Nicole Southern magnolia Magnolia grandiflora Fruit (None) 32.786900000000000 -79.929100000000000 75118
Thu Mar 02 00:00:00 GMT 2017 jm6we Southern magnolia Magnolia grandiflora Flowers (Middle) 37.574549000000000 -77.540546000000000 75473
Thu Mar 02 00:00:00 GMT 2017 jm6we Southern magnolia Magnolia grandiflora Fruit (None) 37.574549000000000 -77.540546000000000 75474
Mon Mar 13 00:00:00 GMT 2017 MBGYouthandFamily Southern magnolia Magnolia grandiflora Flowers (None) 38.612165200000000 -90.260459900000000 75615
Mon Mar 13 00:00:00 GMT 2017 MBGYouthandFamily Southern magnolia Magnolia grandiflora Fruit (None) 38.612165200000000 -90.260459900000000 75616
Sun Apr 16 00:00:00 GMT 2017 GimmeThePopTarts Southern magnolia Magnolia grandiflora Flowers (None) 37.446950000000000 -122.124340000000000 78319
Sun Apr 16 00:00:00 GMT 2017 GimmeThePopTarts Southern magnolia Magnolia grandiflora Fruit (None) 37.446950000000000 -122.124340000000000 78320
Mon Apr 17 00:00:00 GMT 2017 amy_lase Southern magnolia Magnolia grandiflora Flowers (None) 37.428933000000000 -122.128830000000000 78383
Mon Apr 17 00:00:00 GMT 2017 amy_lase Southern magnolia Magnolia grandiflora Fruit (None) 37.428933000000000 -122.128830000000000 78384
Mon Apr 17 00:00:00 GMT 2017 MBGYouthandFamily Southern magnolia Magnolia grandiflora Flowers (None) 38.612165200000000 -90.260459900000000 79153
Mon Apr 17 00:00:00 GMT 2017 MBGYouthandFamily Southern magnolia Magnolia grandiflora Fruit (None) 38.612165200000000 -90.260459900000000 79154
Sun Mar 19 00:00:00 GMT 2017 dmar Southern magnolia Magnolia grandiflora Flowers (None) 35.017401000000000 -89.626465000000000 81766
Sun Mar 19 00:00:00 GMT 2017 dmar Southern magnolia Magnolia grandiflora Fruit (None) 35.017401000000000 -89.626465000000000 81767
Sun Mar 19 00:00:00 GMT 2017 dmar Southern magnolia Magnolia grandiflora First Flower 35.024598000000000 -89.670410000000000 81768
Sat Apr 08 00:00:00 GMT 2017 dmar Southern magnolia Magnolia grandiflora Full Flower 35.024598000000000 -89.670410000000000 81769
Sat Apr 22 00:00:00 GMT 2017 dmar Southern magnolia Magnolia grandiflora First Ripe Fruit 35.024598000000000 -89.670410000000000 81770
Mon May 01 00:00:00 GMT 2017 dmar Southern magnolia Magnolia grandiflora Full Fruiting 35.024598000000000 -89.670410000000000 81771
Sun May 07 00:00:00 GMT 2017 tayyama Southern magnolia Magnolia grandiflora Flowers (Early) 37.436430000000000 -122.128733000000000 82208
Sun May 07 00:00:00 GMT 2017 tayyama Southern magnolia Magnolia grandiflora Fruit (None) 37.436430000000000 -122.128733000000000 82209
Mon May 15 00:00:00 GMT 2017 af95022534 Southern magnolia Magnolia grandiflora Flowers (Early) 37.452810000000000 -122.135740000000000 82795
Mon May 15 00:00:00 GMT 2017 af95022534 Southern magnolia Magnolia grandiflora Fruit (None) 37.452810000000000 -122.135740000000000 82796
Tue May 16 00:00:00 GMT 2017 nebulaeninja Southern magnolia Magnolia grandiflora Flowers (None) 37.449880000000000 -122.136240000000000 83720
Tue May 16 00:00:00 GMT 2017 nebulaeninja Southern magnolia Magnolia grandiflora Fruit (None) 37.449880000000000 -122.136240000000000 83721
Sun May 14 00:00:00 GMT 2017 BenS Southern magnolia Magnolia grandiflora Flowers (None) 37.449670000000000 -122.137610000000000 84002
Sun May 14 00:00:00 GMT 2017 BenS Southern magnolia Magnolia grandiflora Fruit (None) 37.449670000000000 -122.137610000000000 84003
Sun May 21 00:00:00 GMT 2017 mchun2001 Southern magnolia Magnolia grandiflora Flowers (Middle) 37.450610000000000 -122.129650000000000 84434
Sun May 21 00:00:00 GMT 2017 mchun2001 Southern magnolia Magnolia grandiflora Fruit (Middle) 37.450610000000000 -122.129650000000000 84435
Wed May 17 00:00:00 GMT 2017 isharao Southern magnolia Magnolia grandiflora Flowers (Middle) 40.000000000000000 -100.000000000000000 85246
Wed May 17 00:00:00 GMT 2017 isharao Southern magnolia Magnolia grandiflora Fruit (None) 40.000000000000000 -100.000000000000000 85247
Sat May 27 00:00:00 GMT 2017 le Southern magnolia Magnolia grandiflora Flowers (Early) 37.434980000000000 -122.139380000000000 85754
Sat May 27 00:00:00 GMT 2017 le Southern magnolia Magnolia grandiflora Fruit (Late) 37.434980000000000 -122.139380000000000 85755
Tue Jun 13 00:00:00 GMT 2017 MBGYouthandFamily Southern magnolia Magnolia grandiflora Flowers (Early) 38.612165200000000 -90.260459900000000 86338
Tue Jun 13 00:00:00 GMT 2017 MBGYouthandFamily Southern magnolia Magnolia grandiflora Fruit (None) 38.612165200000000 -90.260459900000000 86339
Wed Jul 05 00:00:00 GMT 2017 phenology Southern magnolia Magnolia grandiflora Flowers (Middle) 35.284630000000000 -79.597980000000000 86673
Wed Jul 05 00:00:00 GMT 2017 phenology Southern magnolia Magnolia grandiflora Fruit (Middle) 35.284630000000000 -79.597980000000000 86674
Fri Mar 31 00:00:00 GMT 2017 HoytArb_Hoyt_Arboretum_reporter2 Southern magnolia Magnolia grandiflora First Flower 45.515620000000000 -122.715740000000000 86872
Thu Apr 06 00:00:00 GMT 2017 HoytArb_Hoyt_Arboretum_reporter2 Southern magnolia Magnolia grandiflora Full Flower 45.515620000000000 -122.715740000000000 86873
Thu Aug 03 00:00:00 GMT 2017 MBGYouthandFamily Southern magnolia Magnolia grandiflora Flowers (None) 38.612165200000000 -90.260459900000000 86943
Thu Aug 03 00:00:00 GMT 2017 MBGYouthandFamily Southern magnolia Magnolia grandiflora Fruit (None) 38.612165200000000 -90.260459900000000 86944

*All downloadable materials require the free Adobe Reader.